createdAt,value
2023-04-27T00:00:56.705Z,68.73
2023-04-27T00:03:25.434Z,67.20
2023-04-27T00:05:54.449Z,64.76
2023-04-27T00:08:23.735Z,63.48
2023-04-27T00:10:52.723Z,63.18
2023-04-27T00:13:20.923Z,63.78
2023-04-27T00:15:49.176Z,64.30
2023-04-27T00:18:18.982Z,64.70
2023-04-27T00:20:47.360Z,65.40
2023-04-27T00:23:15.442Z,66.13
2023-04-27T00:25:43.709Z,66.91
2023-04-27T00:28:12.094Z,67.50
2023-04-27T00:30:40.672Z,67.83
2023-04-27T00:33:08.982Z,68.23
2023-04-27T00:35:38.362Z,67.99
2023-04-27T00:38:07.031Z,68.58
2023-04-27T00:40:35.252Z,69.21
2023-04-27T00:43:04.176Z,69.84
2023-04-27T00:45:32.842Z,69.85
2023-04-27T00:48:06.862Z,69.83
2023-04-27T00:50:40.866Z,69.50
2023-04-27T00:53:08.837Z,69.69
2023-04-27T00:55:37.148Z,70.05
2023-04-27T00:58:05.342Z,70.26
2023-04-27T01:00:35.250Z,69.65
2023-04-27T01:03:04.939Z,69.92
2023-04-27T01:05:33.630Z,69.95
2023-04-27T01:08:02.010Z,70.21
2023-04-27T01:10:30.298Z,70.31
2023-04-27T01:12:59.274Z,70.38
2023-04-27T01:15:27.765Z,70.46
2023-04-27T01:18:02.589Z,70.53
2023-04-27T01:20:33.740Z,70.52
2023-04-27T01:23:04.974Z,70.43
2023-04-27T01:25:33.554Z,70.36
2023-04-27T01:32:50.289Z,70.08
2023-04-27T01:35:21.136Z,70.29
2023-04-27T01:37:49.503Z,70.66
2023-04-27T01:40:20.137Z,70.96
2023-04-27T01:42:51.783Z,70.78
2023-04-27T01:45:20.451Z,70.40
2023-04-27T01:47:53.623Z,70.32
2023-04-27T01:50:35.975Z,70.26
2023-04-27T01:53:04.246Z,69.95
2023-04-27T01:55:34.268Z,69.87
2023-04-27T01:58:03.546Z,69.63
2023-04-27T02:00:32.460Z,69.13
2023-04-27T02:03:01.635Z,68.82
2023-04-27T02:05:30.127Z,68.51
2023-04-27T02:07:58.297Z,68.66
2023-04-27T02:10:27.195Z,68.57
2023-04-27T02:12:58.743Z,68.28
2023-04-27T02:15:30.612Z,68.25
2023-04-27T02:17:59.250Z,67.80
2023-04-27T02:20:31.174Z,67.78
2023-04-27T02:31:49.484Z,67.16
2023-04-27T02:34:18.234Z,66.64
2023-04-27T02:36:47.636Z,66.57
2023-04-27T02:39:16.389Z,66.14
2023-04-27T02:41:44.698Z,66.10
2023-04-27T02:44:12.879Z,66.36
2023-04-27T02:46:41.087Z,66.47
2023-04-27T02:49:09.222Z,66.50
2023-04-27T02:51:37.394Z,66.44
2023-04-27T02:54:07.715Z,66.64
2023-04-27T02:56:36.263Z,66.78
2023-04-27T02:59:04.573Z,67.36
2023-04-27T03:01:32.795Z,67.76
2023-04-27T03:04:01.464Z,68.33
2023-04-27T03:06:31.444Z,68.44
2023-04-27T03:09:00.186Z,67.87
2023-04-27T03:11:29.632Z,68.27
2023-04-27T03:13:59.909Z,69.13
2023-04-27T03:16:49.399Z,70.04
2023-04-27T03:19:17.727Z,70.60
2023-04-27T03:21:45.893Z,70.82
2023-04-27T03:24:14.373Z,70.52
2023-04-27T03:26:44.683Z,70.95
2023-04-27T03:29:13.270Z,70.51
2023-04-27T03:31:41.546Z,70.54
2023-04-27T03:35:06.570Z,70.39
2023-04-27T03:37:34.735Z,71.16
2023-04-27T03:40:23.207Z,71.73
2023-04-27T03:42:51.755Z,71.91
2023-04-27T03:45:23.161Z,71.73
2023-04-27T03:47:51.790Z,70.48
2023-04-27T03:50:21.796Z,69.86
2023-04-27T03:52:50.606Z,69.55
2023-04-27T03:55:19.914Z,69.03
2023-04-27T03:57:48.178Z,68.21
2023-04-27T04:00:20.129Z,67.81
2023-04-27T04:02:50.790Z,67.24
2023-04-27T04:05:19.881Z,66.87
2023-04-27T04:07:48.232Z,64.88
2023-04-27T04:10:16.811Z,62.96
2023-04-27T04:12:45.490Z,62.09
2023-04-27T04:15:13.821Z,61.88
2023-04-27T04:17:42.485Z,61.56
2023-04-27T04:20:11.976Z,61.06
2023-04-27T04:22:40.280Z,61.19
2023-04-27T04:25:08.729Z,64.25
2023-04-27T04:27:38.325Z,65.87
2023-04-27T04:30:07.313Z,66.99
2023-04-27T04:32:38.258Z,67.91
2023-04-27T04:35:08.676Z,69.00
2023-04-27T04:37:38.812Z,69.79
2023-04-27T04:40:11.040Z,69.78
2023-04-27T04:43:07.912Z,70.93
2023-04-27T04:45:39.052Z,70.80
2023-04-27T04:48:07.244Z,69.62
2023-04-27T04:50:40.309Z,69.55
2023-04-27T05:05:43.589Z,68.55
2023-04-27T05:08:10.686Z,68.50
2023-04-27T05:10:37.501Z,69.46
2023-04-27T05:13:05.959Z,69.91
2023-04-27T05:15:34.438Z,70.01
2023-04-27T05:18:28.311Z,70.11
2023-04-27T05:20:55.669Z,70.91
2023-04-27T05:23:23.743Z,71.15
2023-04-27T05:25:52.323Z,71.23
2023-04-27T05:28:19.531Z,71.44
2023-04-27T05:30:46.233Z,71.69
2023-04-27T05:33:13.109Z,71.74
2023-04-27T05:35:41.245Z,70.96
2023-04-27T05:38:09.492Z,70.77
2023-04-27T05:40:36.540Z,70.87
2023-04-27T05:43:05.124Z,71.06
2023-04-27T05:45:32.188Z,70.78
2023-04-27T05:47:59.142Z,70.78
2023-04-27T05:50:25.875Z,70.76
2023-04-27T05:52:52.802Z,71.51
2023-04-27T05:55:19.977Z,71.37
2023-04-27T05:57:51.698Z,71.46
2023-04-27T06:00:24.647Z,70.98
2023-04-27T06:02:51.778Z,70.37
2023-04-27T06:05:21.701Z,69.76
2023-04-27T06:07:48.600Z,69.43
2023-04-27T06:10:18.889Z,69.60
2023-04-27T06:12:46.492Z,69.89
2023-04-27T06:15:13.638Z,68.82
2023-04-27T06:17:44.025Z,68.79
2023-04-27T06:20:11.910Z,68.75
2023-04-27T06:22:38.983Z,68.42
2023-04-27T06:25:07.350Z,68.14
2023-04-27T06:27:34.804Z,67.73
2023-04-27T06:30:01.957Z,68.26
2023-04-27T06:32:28.863Z,67.95
2023-04-27T06:34:56.454Z,68.24
2023-04-27T06:37:23.247Z,67.80
2023-04-27T06:39:50.271Z,67.21
2023-04-27T06:42:17.490Z,66.62
2023-04-27T06:44:44.337Z,65.76
2023-04-27T06:47:12.206Z,66.02
2023-04-27T06:49:39.246Z,65.42
2023-04-27T06:52:06.048Z,65.04
2023-04-27T06:54:33.344Z,64.34
2023-04-27T07:01:11.167Z,63.11
2023-04-27T07:03:40.102Z,62.06
2023-04-27T07:06:09.769Z,61.35
2023-04-27T07:08:37.528Z,60.05
2023-04-27T07:11:04.476Z,59.18
2023-04-27T07:13:57.711Z,58.35
2023-04-27T07:16:24.484Z,56.54
2023-04-27T07:18:51.943Z,53.90
2023-04-27T07:21:18.645Z,52.53
2023-04-27T07:23:47.215Z,52.04
2023-04-27T07:26:14.308Z,49.10
2023-04-27T07:28:41.355Z,47.66
2023-04-27T07:31:08.703Z,47.82
2023-04-27T07:33:36.464Z,46.75
2023-04-27T07:36:04.172Z,45.57
2023-04-27T07:38:31.427Z,46.55
2023-04-27T07:40:58.530Z,44.21
2023-04-27T07:43:30.454Z,44.64
2023-04-27T07:45:58.500Z,45.04
2023-04-27T07:48:30.699Z,44.72
2023-04-27T07:50:57.867Z,43.16
2023-04-27T07:53:24.708Z,43.86
2023-04-27T07:55:51.765Z,43.58
2023-04-27T07:58:19.521Z,43.72
2023-04-27T08:00:47.900Z,43.22
2023-04-27T08:03:14.844Z,43.47
2023-04-27T08:05:42.314Z,43.23
2023-04-27T08:08:13.875Z,42.56
2023-04-27T08:10:44.366Z,42.95
2023-04-27T08:13:12.497Z,45.50
2023-04-27T08:15:39.291Z,46.31
2023-04-27T08:18:07.707Z,47.16
2023-04-27T08:20:34.725Z,46.89
2023-04-27T08:23:01.404Z,45.72
2023-04-27T08:25:28.707Z,44.41
2023-04-27T08:27:55.524Z,42.98
2023-04-27T08:30:22.493Z,43.38
2023-04-27T08:32:49.345Z,45.11
2023-04-27T08:35:16.284Z,45.30
2023-04-27T08:37:43.738Z,45.80
2023-04-27T08:40:11.604Z,45.69
2023-04-27T08:42:41.348Z,45.27
2023-04-27T08:45:09.099Z,44.42
2023-04-27T08:47:43.361Z,42.78
2023-04-27T08:50:12.558Z,42.57
2023-04-27T08:52:40.086Z,42.17
2023-04-27T08:55:08.343Z,42.97
2023-04-27T08:57:35.471Z,43.62
2023-04-27T09:00:12.042Z,43.68
2023-04-27T09:02:47.256Z,43.96
2023-04-27T09:05:18.022Z,44.61
2023-04-27T09:07:57.423Z,45.51
2023-04-27T09:10:24.292Z,45.18
2023-04-27T09:13:00.880Z,46.20
2023-04-27T09:15:28.394Z,45.83
2023-04-27T09:17:56.237Z,46.00
2023-04-27T09:20:23.435Z,46.73
2023-04-27T09:22:55.291Z,46.89
2023-04-27T09:25:32.181Z,47.82
2023-04-27T09:28:00.924Z,48.30
2023-04-27T09:30:28.116Z,48.97
2023-04-27T09:33:03.241Z,48.52
2023-04-27T09:35:33.260Z,48.03
2023-04-27T09:38:00.518Z,47.17
2023-04-27T09:40:31.805Z,47.77
2023-04-27T09:43:03.016Z,48.42
2023-04-27T09:45:30.781Z,48.64
2023-04-27T09:47:58.600Z,49.20
2023-04-27T09:50:25.834Z,49.34
2023-04-27T09:52:52.938Z,49.04
2023-04-27T09:55:28.716Z,49.30
2023-04-27T09:58:10.181Z,49.27
2023-04-27T10:00:49.122Z,49.43
2023-04-27T10:03:29.310Z,49.72
2023-04-27T10:06:06.633Z,49.27
2023-04-27T10:08:35.596Z,49.20
2023-04-27T10:11:15.170Z,48.87
2023-04-27T10:13:54.424Z,48.90
2023-04-27T10:16:23.301Z,49.88
2023-04-27T10:18:59.859Z,49.92
2023-04-27T10:21:27.321Z,49.20
2023-04-27T10:23:54.394Z,48.93
2023-04-27T10:26:26.330Z,48.80
2023-04-27T10:29:07.155Z,48.36
2023-04-27T10:31:34.203Z,48.61
2023-04-27T10:34:12.349Z,48.21
2023-04-27T10:36:42.150Z,48.74
2023-04-27T10:39:32.676Z,49.14
2023-04-27T10:42:07.840Z,49.11
2023-04-27T10:44:36.798Z,49.00
2023-04-27T10:47:14.997Z,49.22
2023-04-27T10:49:42.683Z,49.33
2023-04-27T10:52:09.504Z,50.03
2023-04-27T10:54:37.572Z,51.23
2023-04-27T10:57:10.735Z,51.74
2023-04-27T10:59:51.574Z,51.40
2023-04-27T11:02:27.210Z,51.23
2023-04-27T11:04:56.321Z,51.45
2023-04-27T11:07:27.414Z,51.72
2023-04-27T11:09:54.609Z,52.32
2023-04-27T11:12:21.715Z,52.30
2023-04-27T11:14:48.538Z,51.82
2023-04-27T11:17:15.883Z,51.02
2023-04-27T11:19:48.895Z,51.43
2023-04-27T11:22:18.640Z,50.77
2023-04-27T11:24:49.140Z,50.66
2023-04-27T11:27:17.432Z,51.15
2023-04-27T11:29:44.560Z,50.28
2023-04-27T11:32:37.955Z,49.94
2023-04-27T11:35:05.028Z,50.04
2023-04-27T11:37:32.386Z,50.17
2023-04-27T11:39:59.872Z,49.69
2023-04-27T11:42:28.190Z,48.98
2023-04-27T11:45:00.440Z,47.92
2023-04-27T11:47:32.433Z,47.59
2023-04-27T11:50:00.807Z,47.88
2023-04-27T11:52:39.765Z,47.86
2023-04-27T11:55:11.746Z,47.45
2023-04-27T11:57:39.020Z,47.51
2023-04-27T12:00:12.097Z,47.68
2023-04-27T12:02:42.961Z,44.83
2023-04-27T12:05:12.590Z,43.23
2023-04-27T12:07:40.912Z,41.79
2023-04-27T12:10:10.008Z,39.50
2023-04-27T12:12:38.317Z,38.37
2023-04-27T12:15:06.132Z,36.50
2023-04-27T12:17:32.807Z,35.90
2023-04-27T12:19:59.929Z,35.51
2023-04-27T12:22:27.182Z,34.81
2023-04-27T12:24:54.060Z,33.22
2023-04-27T12:27:20.699Z,33.37
2023-04-27T12:29:47.431Z,33.35
2023-04-27T12:32:14.549Z,33.57
2023-04-27T12:34:42.813Z,34.10
2023-04-27T12:37:12.058Z,33.70
2023-04-27T12:39:39.079Z,32.57
2023-04-27T12:42:06.123Z,32.74
2023-04-27T12:44:34.824Z,33.21
2023-04-27T12:47:01.889Z,33.58
2023-04-27T12:49:28.693Z,33.03
2023-04-27T12:51:57.444Z,33.23
2023-04-27T12:54:24.798Z,32.81
2023-04-27T12:56:51.793Z,33.03
2023-04-27T12:59:18.566Z,33.16
2023-04-27T13:01:46.402Z,33.53
2023-04-27T13:04:22.950Z,33.50
2023-04-27T13:06:51.536Z,33.01
2023-04-27T13:09:18.432Z,32.80
2023-04-27T13:11:45.576Z,32.24
2023-04-27T13:14:13.153Z,32.78
2023-04-27T13:16:44.172Z,32.27
2023-04-27T13:19:11.377Z,31.30
2023-04-27T13:21:38.320Z,31.28
2023-04-27T13:24:07.510Z,31.24
2023-04-27T13:26:34.671Z,31.19
2023-04-27T13:29:04.959Z,31.00
2023-04-27T13:31:33.004Z,31.24
2023-04-27T13:34:03.035Z,31.55
2023-04-27T13:36:30.064Z,31.58
2023-04-27T13:38:57.690Z,31.66
2023-04-27T13:41:28.668Z,31.59
2023-04-27T13:43:55.467Z,30.66
2023-04-27T13:46:22.824Z,31.05
2023-04-27T13:48:50.435Z,30.60
2023-04-27T13:52:10.509Z,30.74
2023-04-27T13:54:37.721Z,30.41
2023-04-27T13:57:04.654Z,30.92
2023-04-27T13:59:31.710Z,30.88
2023-04-27T14:01:58.459Z,30.37
2023-04-27T14:04:25.511Z,31.18
2023-04-27T14:06:52.648Z,30.42
2023-04-27T14:09:20.124Z,29.75
2023-04-27T14:11:56.469Z,29.29
2023-04-27T14:14:25.681Z,29.33
2023-04-27T14:16:52.882Z,29.48
2023-04-27T14:19:20.168Z,29.48
2023-04-27T14:21:47.520Z,29.78
2023-04-27T14:24:14.670Z,29.90
2023-04-27T14:26:45.159Z,29.43
2023-04-27T14:29:13.287Z,30.00
2023-04-27T14:31:40.360Z,29.99
2023-04-27T14:34:07.587Z,30.55
2023-04-27T14:36:34.613Z,30.86
2023-04-27T14:39:01.454Z,30.68
2023-04-27T14:41:28.709Z,29.61
2023-04-27T14:43:58.566Z,29.50
2023-04-27T14:46:26.038Z,29.80
2023-04-27T14:48:53.662Z,29.65
2023-04-27T14:51:21.402Z,29.52
2023-04-27T14:53:50.205Z,29.15
2023-04-27T14:56:17.140Z,29.53
2023-04-27T14:58:44.009Z,29.74
2023-04-27T15:01:13.567Z,29.43
2023-04-27T15:03:41.032Z,28.89
2023-04-27T15:06:08.392Z,29.09
2023-04-27T15:08:35.120Z,29.70
2023-04-27T15:11:05.057Z,29.28
2023-04-27T15:13:31.783Z,29.22
2023-04-27T15:16:02.147Z,29.93
2023-04-27T15:18:29.040Z,30.29
2023-04-27T15:20:59.578Z,30.43
2023-04-27T15:23:26.834Z,30.25
2023-04-27T15:25:55.319Z,30.45
2023-04-27T15:28:22.771Z,30.66
2023-04-27T15:30:49.626Z,30.49
2023-04-27T15:33:16.669Z,30.49
2023-04-27T15:35:43.595Z,30.69
2023-04-27T15:38:13.267Z,30.96
2023-04-27T15:40:40.094Z,30.49
2023-04-27T15:43:07.097Z,30.29
2023-04-27T15:45:34.156Z,30.63
2023-04-27T15:48:00.937Z,31.10
2023-04-27T15:50:28.724Z,31.07
2023-04-27T15:52:55.795Z,31.02
2023-04-27T15:58:19.548Z,31.27
2023-04-27T16:00:49.175Z,31.79
2023-04-27T16:03:18.801Z,31.38
2023-04-27T16:06:01.155Z,31.58
2023-04-27T16:08:31.845Z,31.50
2023-04-27T16:11:02.797Z,31.91
2023-04-27T16:13:34.547Z,31.74
2023-04-27T16:16:02.852Z,31.42
2023-04-27T16:18:31.184Z,31.83
2023-04-27T16:21:01.195Z,32.19
2023-04-27T16:23:29.372Z,32.64
2023-04-27T16:25:57.761Z,32.72
2023-04-27T16:28:26.230Z,33.22
2023-04-27T16:30:55.319Z,33.09
2023-04-27T16:33:24.029Z,33.26
2023-04-27T16:35:53.918Z,33.17
2023-04-27T16:38:22.094Z,33.16
2023-04-27T16:40:54.776Z,33.34
2023-04-27T16:43:51.630Z,33.77
2023-04-27T16:46:19.823Z,34.34
2023-04-27T16:48:49.499Z,34.99
2023-04-27T16:51:18.469Z,35.05
2023-04-27T16:53:46.977Z,35.08
2023-04-27T16:56:15.552Z,34.49
2023-04-27T16:58:45.989Z,33.89
2023-04-27T17:01:14.410Z,34.06
2023-04-27T17:03:43.410Z,34.13
2023-04-27T17:06:31.391Z,34.23
2023-04-27T17:08:59.663Z,33.76
2023-04-27T17:11:27.884Z,33.47
2023-04-27T17:13:56.672Z,33.71
2023-04-27T17:16:27.587Z,33.50
2023-04-27T17:18:57.991Z,33.30
2023-04-27T17:21:28.974Z,33.76
2023-04-27T17:23:57.222Z,34.29
2023-04-27T17:26:25.212Z,34.27
2023-04-27T17:28:56.928Z,34.15
2023-04-27T17:31:25.138Z,34.11
2023-04-27T17:33:54.088Z,34.27
2023-04-27T17:36:22.179Z,34.40
2023-04-27T17:38:50.754Z,34.57
2023-04-27T17:41:19.236Z,34.84
2023-04-27T17:43:47.373Z,34.94
2023-04-27T17:46:15.935Z,35.15
2023-04-27T17:48:45.048Z,34.96
2023-04-27T17:51:13.260Z,35.57
2023-04-27T17:53:41.638Z,36.23
2023-04-27T17:56:10.333Z,36.50
2023-04-27T17:58:39.766Z,36.92
2023-04-27T18:01:12.006Z,36.92
2023-04-27T18:03:42.714Z,36.73
2023-04-27T18:06:11.223Z,36.60
2023-04-27T18:08:39.684Z,36.08
2023-04-27T18:11:07.853Z,35.65
2023-04-27T18:13:36.132Z,35.50
2023-04-27T18:16:06.188Z,35.75
2023-04-27T18:18:34.524Z,35.75
2023-04-27T18:21:03.138Z,35.78
2023-04-27T18:23:31.692Z,35.77
2023-04-27T18:26:00.386Z,36.04
2023-04-27T18:28:28.960Z,35.72
2023-04-27T18:30:57.645Z,35.70
2023-04-27T18:33:26.647Z,35.98
2023-04-27T18:35:54.808Z,35.58
2023-04-27T18:38:23.213Z,35.59
2023-04-27T18:40:51.730Z,35.84
2023-04-27T18:43:19.934Z,35.82
2023-04-27T18:45:48.771Z,36.11
2023-04-27T18:48:17.117Z,36.63
2023-04-27T18:50:45.889Z,36.46
2023-04-27T18:53:14.473Z,36.11
2023-04-27T18:55:43.517Z,36.21
2023-04-27T18:58:11.850Z,36.28
2023-04-27T19:00:40.215Z,35.86
2023-04-27T19:03:08.374Z,36.01
2023-04-27T19:05:37.173Z,36.01
2023-04-27T19:08:05.680Z,36.25
2023-04-27T19:10:33.652Z,36.22
2023-04-27T19:13:01.844Z,36.52
2023-04-27T19:15:30.906Z,36.57
2023-04-27T19:18:06.953Z,36.99
2023-04-27T19:20:42.732Z,37.41
2023-04-27T19:23:12.722Z,37.74
2023-04-27T19:25:43.973Z,38.23
2023-04-27T19:28:12.757Z,38.20
2023-04-27T19:30:41.180Z,38.19
2023-04-27T19:33:10.399Z,38.79
2023-04-27T19:35:40.892Z,38.59
2023-04-27T19:38:09.699Z,38.14
2023-04-27T19:40:38.950Z,38.26
2023-04-27T19:43:11.429Z,38.25
2023-04-27T19:45:43.630Z,38.01
2023-04-27T19:48:12.148Z,38.11
2023-04-27T19:50:44.136Z,38.28
2023-04-27T19:53:14.973Z,38.39
2023-04-27T19:55:43.080Z,38.74
2023-04-27T19:58:11.503Z,38.98
2023-04-27T20:00:39.998Z,38.86
2023-04-27T20:03:09.013Z,38.89
2023-04-27T20:05:37.858Z,38.98
2023-04-27T20:08:08.888Z,38.84
2023-04-27T20:10:37.706Z,39.00
2023-04-27T20:13:06.881Z,39.30
2023-04-27T20:15:36.109Z,39.12
2023-04-27T20:18:04.683Z,39.16
2023-04-27T20:20:58.921Z,39.23
2023-04-27T20:23:27.250Z,39.25
2023-04-27T20:25:56.180Z,39.01
2023-04-27T20:28:24.535Z,39.21
2023-04-27T20:30:53.099Z,39.25
2023-04-27T20:33:22.312Z,39.44
2023-04-27T20:35:55.502Z,39.51
2023-04-27T20:38:23.861Z,39.31
2023-04-27T20:41:42.475Z,39.22
2023-04-27T20:44:10.900Z,39.29
2023-04-27T20:46:38.968Z,39.63
2023-04-27T20:49:09.328Z,39.36
2023-04-27T20:51:37.685Z,39.31
2023-04-27T20:54:06.263Z,39.53
2023-04-27T20:56:34.680Z,39.63
2023-04-27T20:59:03.945Z,39.96
2023-04-27T21:01:34.177Z,39.96
2023-04-27T21:04:02.943Z,40.16
2023-04-27T21:06:35.724Z,39.68
2023-04-27T21:09:03.897Z,39.99
2023-04-27T21:11:32.172Z,39.87
2023-04-27T21:14:00.241Z,40.22
2023-04-27T21:16:28.692Z,40.21
2023-04-27T21:18:57.008Z,39.88
2023-04-27T21:21:27.930Z,40.19
2023-04-27T21:24:06.718Z,40.43
2023-04-27T21:26:35.261Z,40.41
2023-04-27T21:29:06.136Z,40.51
2023-04-27T21:31:37.419Z,40.34
2023-04-27T21:34:07.435Z,40.38
2023-04-27T21:36:36.117Z,40.55
2023-04-27T21:39:04.429Z,40.39
2023-04-27T21:41:38.200Z,40.53
2023-04-27T21:44:06.602Z,40.36
2023-04-27T21:46:35.381Z,40.32
2023-04-27T21:53:47.241Z,40.74
2023-04-27T21:56:18.434Z,40.90
2023-04-27T21:58:46.811Z,40.74
2023-04-27T22:01:15.143Z,40.99
2023-04-27T22:03:43.811Z,40.81
2023-04-27T22:07:27.541Z,40.70
2023-04-27T22:09:55.703Z,40.56
2023-04-27T22:12:23.973Z,40.12
2023-04-27T22:14:52.238Z,40.27
2023-04-27T22:17:20.410Z,40.58
2023-04-27T22:20:14.507Z,40.67
2023-04-27T22:22:42.831Z,40.47
2023-04-27T22:25:12.680Z,40.39
2023-04-27T22:27:45.105Z,40.34
2023-04-27T22:30:15.689Z,40.14
2023-04-27T22:33:03.665Z,40.12
2023-04-27T22:35:33.761Z,40.34
2023-04-27T22:38:02.064Z,40.22
2023-04-27T22:40:30.702Z,40.34
2023-04-27T22:42:58.777Z,39.84
2023-04-27T22:45:27.053Z,40.11
2023-04-27T22:47:55.290Z,40.50
2023-04-27T22:50:23.605Z,40.76
2023-04-27T22:52:56.647Z,40.85
2023-04-27T22:55:24.775Z,41.00
2023-04-27T22:57:54.079Z,41.95
2023-04-27T23:00:22.434Z,42.44
2023-04-27T23:02:50.808Z,42.15
2023-04-27T23:05:18.949Z,42.26
2023-04-27T23:08:13.696Z,42.37
2023-04-27T23:10:41.780Z,41.17
2023-04-27T23:13:13.810Z,41.06
2023-04-27T23:15:41.891Z,41.46
2023-04-27T23:18:10.279Z,43.02
2023-04-27T23:20:38.456Z,41.84
2023-04-27T23:23:06.991Z,40.67
2023-04-27T23:25:35.090Z,40.57
2023-04-27T23:28:03.939Z,40.72
2023-04-27T23:30:33.996Z,40.90
2023-04-27T23:33:02.324Z,41.20
2023-04-27T23:35:32.193Z,41.00
2023-04-27T23:38:00.349Z,41.33
2023-04-27T23:40:28.594Z,41.27
2023-04-27T23:42:58.033Z,42.12
2023-04-27T23:45:25.930Z,42.38
2023-04-27T23:47:59.414Z,41.83
2023-04-27T23:50:46.084Z,41.76
2023-04-27T23:53:14.690Z,41.96
2023-04-27T23:55:43.910Z,41.64
2023-04-27T23:58:11.960Z,41.43
